Time;durP1;ratioP1;P1;durP2;ratioP2;P2;SDS_P1;SDS_P2;PMS_P1;PMS_P2;Temp;Humidity;BMP_temperature;BMP_pressure;BME280_temperature;BME280_humidity;BME280_pressure;Samples;Min_cycle;Max_cycle;Signal;HPM_P1;HPM_P2
2024/02/13 00:00:46;;;;;;;24.55;15.43;;;8.10;99.90;;;;;;5077184;28;20099;-73
2024/02/13 00:03:14;;;;;;;29.70;15.35;;;8.00;99.90;;;;;;5063252;28;20361;-71
2024/02/13 00:05:43;;;;;;;32.35;21.10;;;8.00;99.90;;;;;;5070290;28;20036;-73
2024/02/13 00:08:13;;;;;;;28.20;19.25;;;8.20;99.90;;;;;;5070740;28;20037;-73
2024/02/13 00:10:41;;;;;;;21.27;14.98;;;8.20;99.90;;;;;;5050972;28;20041;-73
2024/02/13 00:13:09;;;;;;;27.95;17.35;;;8.30;99.90;;;;;;5064452;28;20040;-73
2024/02/13 00:15:37;;;;;;;26.88;17.75;;;8.30;99.90;;;;;;5070913;28;20041;-73
2024/02/13 00:18:07;;;;;;;36.92;20.73;;;8.20;99.90;;;;;;5066159;28;20111;-73
2024/02/13 00:20:34;;;;;;;38.50;21.03;;;8.20;99.90;;;;;;5060632;28;20139;-72
2024/02/13 00:23:04;;;;;;;36.20;20.10;;;8.20;99.90;;;;;;5068083;28;20930;-74
2024/02/13 00:25:33;;;;;;;36.95;21.23;;;8.10;99.90;;;;;;5068810;28;20424;-72
2024/02/13 00:28:01;;;;;;;41.30;23.73;;;8.00;99.90;;;;;;5069608;28;20106;-73
2024/02/13 00:30:28;;;;;;;41.92;23.73;;;8.00;99.90;;;;;;5061846;28;20056;-75
2024/02/13 00:33:19;;;;;;;39.97;23.52;;;8.00;99.90;;;;;;5067303;28;20037;-75
2024/02/13 00:36:11;;;;;;;37.03;23.17;;;8.10;99.90;;;;;;5063335;28;20427;-73
2024/02/13 00:38:42;;;;;;;41.60;23.65;;;8.20;99.90;;;;;;5060227;28;20067;-76
2024/02/13 00:41:10;;;;;;;43.33;24.73;;;8.10;99.90;;;;;;5061562;28;20486;-75
2024/02/13 00:43:37;;;;;;;43.42;25.98;;;8.10;99.90;;;;;;5067199;28;20032;-75
2024/02/13 00:46:04;;;;;;;47.92;28.13;;;8.00;99.90;;;;;;5070694;28;20032;-78
2024/02/13 00:48:32;;;;;;;43.85;29.42;;;8.10;99.90;;;;;;5069232;28;20439;-74
2024/02/13 00:51:00;;;;;;;36.90;21.40;;;8.20;99.90;;;;;;5056442;28;20040;-76
2024/02/13 00:53:28;;;;;;;33.17;20.52;;;8.20;99.90;;;;;;5074372;28;20039;-76
2024/02/13 00:55:55;;;;;;;30.90;20.35;;;8.30;99.90;;;;;;5065369;28;20032;-76
2024/02/13 00:58:22;;;;;;;31.05;20.00;;;8.40;99.90;;;;;;5057906;28;20033;-77
2024/02/13 01:00:49;;;;;;;27.35;18.73;;;8.10;99.90;;;;;;5050228;28;20131;-77
2024/02/13 01:03:17;;;;;;;26.48;16.45;;;8.20;99.90;;;;;;5053349;28;20049;-75
2024/02/13 01:05:44;;;;;;;23.05;16.45;;;8.40;99.90;;;;;;5054662;28;20051;-75
2024/02/13 01:08:11;;;;;;;27.08;18.15;;;8.50;99.90;;;;;;5053761;28;20037;-79
2024/02/13 01:10:39;;;;;;;30.05;21.05;;;8.70;99.90;;;;;;5061170;28;20041;-75
2024/02/13 01:13:07;;;;;;;30.55;18.90;;;8.30;99.90;;;;;;5059803;28;20039;-73
2024/02/13 01:15:37;;;;;;;34.25;20.05;;;8.50;99.90;;;;;;5073918;28;20058;-74
2024/02/13 01:18:05;;;;;;;29.67;18.05;;;8.40;99.90;;;;;;5072769;28;20043;-75
2024/02/13 01:20:33;;;;;;;28.00;19.70;;;8.60;99.90;;;;;;5073058;28;20477;-75
2024/02/13 01:23:00;;;;;;;29.73;21.58;;;8.70;99.90;;;;;;5070838;28;20039;-76
2024/02/13 01:25:30;;;;;;;28.52;20.70;;;8.70;99.90;;;;;;5072129;28;20090;-76
2024/02/13 01:27:58;;;;;;;33.65;21.55;;;8.70;99.90;;;;;;5072807;28;20111;-76
2024/02/13 01:30:25;;;;;;;32.00;19.25;;;8.60;99.90;;;;;;5073211;28;20051;-74
2024/02/13 01:32:52;;;;;;;26.75;18.17;;;8.40;99.90;;;;;;5071940;28;20028;-78
2024/02/13 01:35:20;;;;;;;32.75;19.65;;;8.20;99.90;;;;;;5073280;28;20070;-76
2024/02/13 01:37:47;;;;;;;29.33;19.52;;;8.20;99.90;;;;;;5072066;28;20037;-75
2024/02/13 01:40:16;;;;;;;38.90;19.92;;;8.20;99.90;;;;;;5072661;28;20036;-75
2024/02/13 01:42:48;;;;;;;29.63;18.67;;;8.30;99.90;;;;;;5072100;28;20032;-73
2024/02/13 01:45:16;;;;;;;28.08;18.95;;;8.30;99.90;;;;;;5075281;28;20047;-77
2024/02/13 01:47:55;;;;;;;29.77;18.67;;;8.30;99.90;;;;;;5073246;28;20124;-75
2024/02/13 01:50:22;;;;;;;32.13;19.10;;;8.30;99.90;;;;;;5069425;28;20405;-74
2024/02/13 01:52:51;;;;;;;35.05;18.58;;;8.30;99.90;;;;;;5052700;28;20071;-73
2024/02/13 01:55:21;;;;;;;25.65;16.88;;;8.10;99.90;;;;;;5056886;28;20056;-72
2024/02/13 01:57:48;;;;;;;30.50;16.77;;;8.20;99.90;;;;;;5072777;28;20041;-75
2024/02/13 02:00:16;;;;;;;27.08;17.38;;;8.20;99.90;;;;;;5072258;28;20485;-75
2024/02/13 02:02:49;;;;;;;28.92;17.67;;;8.20;99.90;;;;;;5064604;28;20450;-74
2024/02/13 02:05:16;;;;;;;26.83;16.88;;;8.30;99.90;;;;;;5052629;28;20033;-75
2024/02/13 02:07:56;;;;;;;22.63;15.07;;;8.10;99.90;;;;;;5063555;28;20403;-75
2024/02/13 02:10:23;;;;;;;25.40;15.18;;;7.90;99.90;;;;;;5067602;28;20032;-75
2024/02/13 02:12:51;;;;;;;23.48;14.75;;;7.90;99.90;;;;;;5033833;28;20073;-77
2024/02/13 02:15:18;;;;;;;26.00;14.13;;;7.80;99.90;;;;;;5071159;28;20056;-76
2024/02/13 02:17:55;;;;;;;23.10;14.43;;;7.70;99.90;;;;;;5041808;28;20480;-76
2024/02/13 02:20:22;;;;;;;26.42;15.25;;;7.80;99.90;;;;;;5060140;28;20044;-73
2024/02/13 02:22:51;;;;;;;24.85;15.57;;;7.90;99.90;;;;;;5052915;28;20067;-74
2024/02/13 02:25:19;;;;;;;24.10;15.93;;;8.00;99.90;;;;;;5056381;28;20471;-73
2024/02/13 02:28:04;;;;;;;23.77;16.40;;;7.80;99.90;;;;;;5054179;28;20032;-75
2024/02/13 02:30:33;;;;;;;20.98;15.18;;;7.70;99.90;;;;;;5072033;28;20134;-76
2024/02/13 02:33:03;;;;;;;24.23;16.02;;;7.90;99.90;;;;;;5071554;28;20108;-75
2024/02/13 02:35:30;;;;;;;21.85;15.23;;;7.90;99.90;;;;;;5072600;28;20048;-73
2024/02/13 02:37:58;;;;;;;22.75;14.63;;;8.00;99.90;;;;;;5058854;28;20410;-75
2024/02/13 02:40:26;;;;;;;22.25;14.90;;;8.00;99.90;;;;;;5071552;28;20036;-73
2024/02/13 02:42:55;;;;;;;22.42;14.32;;;7.70;99.90;;;;;;5071706;28;20353;-73
2024/02/13 02:45:24;;;;;;;20.92;14.77;;;7.80;99.90;;;;;;5071487;28;20042;-71
2024/02/13 02:47:51;;;;;;;21.13;14.55;;;7.80;99.90;;;;;;5072025;28;20124;-74
2024/02/13 02:50:19;;;;;;;24.13;14.13;;;8.10;99.90;;;;;;5070489;28;20036;-75
2024/02/13 02:52:46;;;;;;;20.48;13.55;;;8.20;99.90;;;;;;5061622;28;20037;-76
2024/02/13 02:55:14;;;;;;;21.77;14.63;;;8.20;99.90;;;;;;5051747;28;20044;-74
2024/02/13 02:57:42;;;;;;;23.45;14.75;;;8.20;99.90;;;;;;5071004;28;20117;-75
2024/02/13 03:00:12;;;;;;;23.92;15.80;;;8.20;99.90;;;;;;5071112;28;20472;-73
2024/02/13 03:02:51;;;;;;;27.02;14.80;;;8.10;99.90;;;;;;5071315;28;20400;-76
2024/02/13 03:05:19;;;;;;;22.92;13.13;;;8.10;99.90;;;;;;5071143;28;20056;-76
2024/02/13 03:07:46;;;;;;;22.65;13.30;;;8.10;99.90;;;;;;5071367;28;20064;-76
2024/02/13 03:10:14;;;;;;;27.02;13.98;;;8.00;99.90;;;;;;5071415;28;20103;-75
2024/02/13 03:12:41;;;;;;;20.42;13.13;;;7.80;99.90;;;;;;5071230;28;20044;-74
2024/02/13 03:15:09;;;;;;;20.15;14.00;;;7.60;99.90;;;;;;5070981;28;20444;-73
2024/02/13 03:17:39;;;;;;;24.42;14.98;;;7.60;99.90;;;;;;5071455;28;20040;-69
2024/02/13 03:20:12;;;;;;;24.23;14.68;;;7.50;99.90;;;;;;5070955;28;20032;-76
2024/02/13 03:22:52;;;;;;;21.25;14.27;;;7.70;99.90;;;;;;5053342;28;20048;-72
2024/02/13 03:25:20;;;;;;;23.45;15.10;;;7.60;99.90;;;;;;5070671;28;20119;-76
2024/02/13 03:27:54;;;;;;;26.20;15.88;;;7.70;99.90;;;;;;5070760;28;20432;-76
2024/02/13 03:30:21;;;;;;;25.65;14.77;;;7.70;99.90;;;;;;5071293;28;20380;-71
2024/02/13 03:32:49;;;;;;;25.73;15.75;;;7.60;99.90;;;;;;5070526;28;20082;-78
2024/02/13 03:35:17;;;;;;;26.75;15.50;;;7.50;99.90;;;;;;5071288;28;20040;-77
2024/02/13 03:37:44;;;;;;;22.10;14.60;;;7.60;99.90;;;;;;5070813;28;20094;-75
2024/02/13 03:40:15;;;;;;;22.30;14.55;;;7.60;99.90;;;;;;5070945;28;20500;-78
2024/02/13 03:42:46;;;;;;;22.58;14.50;;;7.50;99.90;;;;;;5070157;28;20431;-76
2024/02/13 03:45:13;;;;;;;19.20;14.85;;;7.40;99.90;;;;;;5070808;28;20392;-72
2024/02/13 03:47:51;;;;;;;22.85;14.48;;;7.40;99.90;;;;;;5082194;28;20115;-76
2024/02/13 03:50:19;;;;;;;20.38;13.70;;;7.50;99.90;;;;;;5070915;28;20064;-74
2024/02/13 03:52:46;;;;;;;19.42;14.32;;;7.40;99.90;;;;;;5070540;28;20033;-76
2024/02/13 03:55:14;;;;;;;23.10;13.90;;;7.40;99.90;;;;;;5070524;28;20039;-75
2024/02/13 03:57:41;;;;;;;23.20;13.45;;;7.50;99.90;;;;;;5070683;28;20123;-75
2024/02/13 04:00:10;;;;;;;25.48;16.17;;;7.60;99.90;;;;;;5057082;28;20037;-74
2024/02/13 04:02:41;;;;;;;21.05;15.98;;;7.60;99.90;;;;;;5090566;28;20062;-76
2024/02/13 04:05:09;;;;;;;21.10;13.93;;;7.60;99.90;;;;;;5044622;28;20040;-75
2024/02/13 04:07:36;;;;;;;22.15;13.10;;;7.50;99.90;;;;;;5070985;28;20044;-77
2024/02/13 04:10:04;;;;;;;19.85;14.32;;;7.60;99.90;;;;;;5055578;28;20064;-79
2024/02/13 04:12:45;;;;;;;24.20;14.70;;;7.60;99.90;;;;;;5050950;28;20094;-77
2024/02/13 04:15:13;;;;;;;21.13;13.75;;;7.60;99.90;;;;;;5050894;28;20029;-78
2024/02/13 04:17:50;;;;;;;18.60;13.90;;;7.50;99.90;;;;;;5063854;28;20119;-73
2024/02/13 04:20:18;;;;;;;20.75;14.43;;;7.30;99.90;;;;;;5051029;28;20064;-74
2024/02/13 04:22:46;;;;;;;21.95;14.32;;;7.50;99.90;;;;;;5064004;28;20044;-76
2024/02/13 04:25:13;;;;;;;21.80;14.45;;;7.60;99.90;;;;;;5058234;28;20452;-74
2024/02/13 04:27:40;;;;;;;18.58;13.20;;;7.60;99.90;;;;;;5055807;28;20372;-72
2024/02/13 04:30:12;;;;;;;24.48;13.40;;;7.70;99.90;;;;;;5050862;28;20380;-74
2024/02/13 04:32:40;;;;;;;19.85;12.95;;;7.60;99.90;;;;;;5045653;28;20526;-70
2024/02/13 04:35:08;;;;;;;20.90;13.25;;;7.80;99.90;;;;;;5050878;28;20120;-77
2024/02/13 04:37:36;;;;;;;18.65;13.40;;;7.80;99.90;;;;;;5056535;28;20060;-74
2024/02/13 04:40:05;;;;;;;22.15;13.98;;;7.80;99.90;;;;;;5074214;28;20040;-75
2024/02/13 04:42:36;;;;;;;17.85;13.50;;;7.30;99.90;;;;;;5056218;28;20044;-74
2024/02/13 04:45:05;;;;;;;21.45;12.55;;;7.50;99.90;;;;;;5074504;28;20448;-69
2024/02/13 04:47:34;;;;;;;20.73;12.48;;;7.70;99.90;;;;;;5082871;28;20118;-71
2024/02/13 04:50:06;;;;;;;18.42;12.93;;;7.70;99.90;;;;;;5073726;28;20051;-74
2024/02/13 04:52:34;;;;;;;20.70;12.73;;;7.70;99.90;;;;;;5074030;28;20072;-71
2024/02/13 04:55:01;;;;;;;18.55;12.07;;;7.80;99.90;;;;;;5056085;28;20066;-74
2024/02/13 04:57:33;;;;;;;17.40;12.27;;;7.90;99.90;;;;;;5073562;28;20059;-73
2024/02/13 05:00:05;;;;;;;13.97;11.97;;;7.90;99.90;;;;;;5061870;28;20041;-72
2024/02/13 05:02:39;;;;;;;20.35;12.00;;;8.00;99.90;;;;;;5053881;28;20641;-75
2024/02/13 05:07:53;;;;;;;21.00;12.48;;;8.00;99.90;;;;;;5054070;28;20045;-78
2024/02/13 05:10:20;;;;;;;18.92;11.13;;;7.90;99.90;;;;;;5071702;28;20028;-79
2024/02/13 05:13:03;;;;;;;14.63;9.88;;;7.90;99.90;;;;;;5086351;28;20047;-74
2024/02/13 05:15:30;;;;;;;16.83;10.35;;;8.00;99.90;;;;;;5054075;28;20037;-76
2024/02/13 05:17:57;;;;;;;13.43;9.60;;;7.90;99.90;;;;;;5066645;28;20048;-75
2024/02/13 05:20:25;;;;;;;16.65;10.75;;;7.70;99.90;;;;;;5061776;28;20376;-72
2024/02/13 05:22:53;;;;;;;19.30;10.82;;;7.70;99.90;;;;;;5040319;28;20049;-75
2024/02/13 05:25:21;;;;;;;17.63;11.38;;;7.50;99.90;;;;;;5062407;28;20032;-72
2024/02/13 05:27:50;;;;;;;16.15;11.48;;;7.70;99.90;;;;;;5073149;28;20041;-74
2024/02/13 05:30:18;;;;;;;17.65;12.13;;;7.70;99.90;;;;;;5072696;28;20116;-74
2024/02/13 05:32:45;;;;;;;17.08;11.48;;;7.70;99.90;;;;;;5069109;28;20088;-76
2024/02/13 05:35:13;;;;;;;19.88;13.63;;;7.70;99.90;;;;;;5060488;28;20099;-73
2024/02/13 05:37:40;;;;;;;21.17;13.60;;;7.50;99.90;;;;;;5059306;28;20120;-74
2024/02/13 05:40:10;;;;;;;25.50;14.15;;;7.50;99.90;;;;;;5058773;28;20118;-76
2024/02/13 05:42:38;;;;;;;19.10;13.77;;;7.70;99.90;;;;;;5067565;28;20040;-77
2024/02/13 05:45:06;;;;;;;21.77;13.32;;;7.50;99.90;;;;;;5056897;28;20408;-77
2024/02/13 05:47:49;;;;;;;21.67;13.18;;;7.40;99.90;;;;;;5073000;28;20147;-70
2024/02/13 05:50:18;;;;;;;17.08;12.82;;;7.60;99.90;;;;;;5072854;28;20041;-77
2024/02/13 05:52:47;;;;;;;20.80;12.60;;;7.60;99.90;;;;;;5072734;28;20033;-77
2024/02/13 05:55:16;;;;;;;17.40;13.00;;;7.70;99.90;;;;;;5072704;28;20036;-75
2024/02/13 05:57:43;;;;;;;23.67;13.25;;;7.70;99.90;;;;;;5059355;28;20496;-78
2024/02/13 06:00:14;;;;;;;26.63;14.88;;;7.70;99.90;;;;;;5069066;28;20040;-77
2024/02/13 06:02:43;;;;;;;20.02;13.27;;;7.70;99.90;;;;;;5067477;28;20044;-78
2024/02/13 06:05:10;;;;;;;19.77;13.02;;;7.80;99.90;;;;;;5067316;28;20602;-75
2024/02/13 06:07:37;;;;;;;20.08;13.57;;;7.90;99.90;;;;;;5054932;28;20064;-75
2024/02/13 06:10:05;;;;;;;25.90;16.67;;;7.90;99.90;;;;;;5041162;28;20463;-73
2024/02/13 06:12:33;;;;;;;40.33;24.98;;;7.60;99.90;;;;;;5044899;28;20040;-73
2024/02/13 06:15:01;;;;;;;22.48;16.55;;;7.70;99.90;;;;;;5062062;28;20379;-67
2024/02/13 06:17:32;;;;;;;57.15;34.30;;;7.80;99.90;;;;;;5074248;28;20040;-74
2024/02/13 06:20:04;;;;;;;55.05;31.42;;;8.00;99.90;;;;;;5072945;28;20515;-75
2024/02/13 06:22:35;;;;;;;30.10;15.77;;;8.10;99.90;;;;;;5072109;28;20050;-80
2024/02/13 06:25:04;;;;;;;20.02;13.85;;;8.00;99.90;;;;;;5061953;28;20029;-77
2024/02/13 06:27:35;;;;;;;16.02;12.70;;;8.00;99.90;;;;;;5066482;28;20028;-77
2024/02/13 06:30:03;;;;;;;16.38;12.68;;;8.00;99.90;;;;;;5062342;28;20060;-74
2024/02/13 06:32:34;;;;;;;20.05;13.05;;;7.90;99.90;;;;;;5054373;28;20033;-79
2024/02/13 06:35:01;;;;;;;18.88;13.32;;;8.10;99.90;;;;;;5062227;28;20028;-76
2024/02/13 06:37:32;;;;;;;19.25;13.50;;;8.20;99.90;;;;;;5064056;28;20041;-72
2024/02/13 06:39:59;;;;;;;23.35;14.20;;;8.20;99.90;;;;;;5075962;28;20042;-72
2024/02/13 06:42:26;;;;;;;21.17;14.02;;;8.30;99.90;;;;;;5053926;28;20094;-78
2024/02/13 06:44:53;;;;;;;22.02;15.73;;;8.20;99.90;;;;;;5069334;28;20432;-72
2024/02/13 06:47:25;;;;;;;22.20;15.48;;;8.20;99.90;;;;;;5052668;28;20070;-77
2024/02/13 06:49:53;;;;;;;22.17;15.70;;;8.30;99.90;;;;;;5071281;28;20033;-77
2024/02/13 06:52:21;;;;;;;23.38;14.93;;;8.40;99.90;;;;;;5071759;28;20032;-79
2024/02/13 06:54:48;;;;;;;25.05;15.85;;;8.20;99.90;;;;;;5071448;28;20040;-71
2024/02/13 06:57:18;;;;;;;22.25;14.77;;;8.10;99.90;;;;;;5071549;28;20101;-74
2024/02/13 06:59:45;;;;;;;25.02;15.55;;;8.30;99.90;;;;;;5071314;28;20369;-76
2024/02/13 07:02:12;;;;;;;26.05;16.70;;;8.50;99.90;;;;;;5068704;28;20037;-71
2024/02/13 07:04:40;;;;;;;25.67;17.48;;;8.70;99.90;;;;;;5068215;28;20035;-74
2024/02/13 07:07:08;;;;;;;27.50;16.83;;;9.20;99.90;;;;;;5065605;28;20492;-74
2024/02/13 07:09:55;;;;;;;28.98;18.10;;;9.30;99.90;;;;;;5072368;28;20118;-69
2024/02/13 07:12:22;;;;;;;29.85;17.27;;;9.40;99.90;;;;;;5061622;28;20154;-75
2024/02/13 07:14:51;;;;;;;34.05;19.65;;;9.40;99.90;;;;;;5062389;28;20032;-74
2024/02/13 07:17:18;;;;;;;34.78;19.45;;;9.50;99.90;;;;;;5066411;28;20443;-83
2024/02/13 07:19:46;;;;;;;29.70;18.40;;;9.60;99.90;;;;;;5053752;28;20029;-75
2024/02/13 07:22:14;;;;;;;33.10;18.52;;;9.50;99.90;;;;;;5049285;28;20124;-83
2024/02/13 07:24:41;;;;;;;24.83;17.58;;;9.50;99.90;;;;;;5055088;28;20097;-79
2024/02/13 07:27:09;;;;;;;25.25;17.30;;;9.30;99.90;;;;;;5078934;28;20048;-80
2024/02/13 07:29:40;;;;;;;30.63;18.80;;;9.30;99.90;;;;;;5069506;28;20046;-77
2024/02/13 07:32:07;;;;;;;25.40;17.83;;;9.50;99.90;;;;;;5060659;28;20060;-79
2024/02/13 07:34:41;;;;;;;27.83;17.63;;;9.40;99.90;;;;;;5055315;28;20656;-80
2024/02/13 07:37:09;;;;;;;30.70;18.17;;;9.40;99.90;;;;;;5057584;28;20037;-78
2024/02/13 07:39:36;;;;;;;32.03;18.10;;;9.40;99.90;;;;;;5067745;28;20106;-77
2024/02/13 07:42:03;;;;;;;32.65;17.33;;;9.20;99.90;;;;;;5067620;28;20040;-78
2024/02/13 07:44:31;;;;;;;34.20;17.90;;;9.30;99.90;;;;;;5064031;28;20043;-78
2024/02/13 07:46:59;;;;;;;33.72;18.52;;;9.50;99.90;;;;;;5070106;28;20051;-78
2024/02/13 07:49:26;;;;;;;27.63;17.70;;;9.60;99.90;;;;;;5068307;28;20464;-79
2024/02/13 07:51:53;;;;;;;29.25;18.05;;;9.70;99.90;;;;;;5070679;28;20150;-77
2024/02/13 07:54:22;;;;;;;28.60;18.02;;;9.70;99.90;;;;;;5069010;28;20033;-78
2024/02/13 07:56:49;;;;;;;28.50;16.25;;;9.80;99.90;;;;;;5068874;28;20102;-79
2024/02/13 07:59:19;;;;;;;26.85;16.80;;;9.90;99.90;;;;;;5067862;28;20032;-70
2024/02/13 08:01:46;;;;;;;28.95;15.98;;;10.00;99.90;;;;;;5067524;28;20033;-76
2024/02/13 08:04:14;;;;;;;28.90;16.13;;;10.10;99.90;;;;;;5063228;28;20032;-76
2024/02/13 08:06:42;;;;;;;27.25;16.27;;;10.50;99.90;;;;;;5069278;28;20035;-77
2024/02/13 08:09:09;;;;;;;24.00;16.42;;;10.90;99.90;;;;;;5074737;28;20040;-74
2024/02/13 08:11:38;;;;;;;23.80;16.05;;;10.90;99.90;;;;;;5061321;28;20380;-77
2024/02/13 08:14:07;;;;;;;25.52;16.33;;;11.30;99.90;;;;;;5066672;28;20692;-77
2024/02/13 08:16:37;;;;;;;25.90;16.30;;;11.50;99.90;;;;;;5060288;28;20037;-79
2024/02/13 08:19:04;;;;;;;25.47;16.37;;;11.70;99.90;;;;;;5070486;28;20028;-76
2024/02/13 08:21:31;;;;;;;29.83;15.70;;;11.80;99.70;;;;;;5062461;28;20040;-76
2024/02/13 08:23:59;;;;;;;21.75;13.50;;;11.60;99.20;;;;;;5069929;28;20378;-76
2024/02/13 08:26:27;;;;;;;20.30;12.88;;;11.50;99.20;;;;;;5057982;28;20041;-78
2024/02/13 08:28:54;;;;;;;27.98;14.15;;;11.10;99.10;;;;;;5056071;28;20384;-76
2024/02/13 08:31:22;;;;;;;19.90;12.77;;;10.90;99.90;;;;;;5071781;28;20028;-78
2024/02/13 08:33:49;;;;;;;16.55;12.00;;;11.20;99.80;;;;;;5074361;28;20533;-76
2024/02/13 08:36:18;;;;;;;16.52;10.10;;;11.20;99.30;;;;;;5074371;28;20044;-79
2024/02/13 08:38:45;;;;;;;15.10;8.95;;;10.90;98.90;;;;;;5069719;28;20048;-79
2024/02/13 08:41:16;;;;;;;9.20;6.10;;;10.90;99.00;;;;;;5070194;28;20446;-73
2024/02/13 08:43:43;;;;;;;;;;;11.10;98.30;;;;;;5075913;28;20476;-79
2024/02/13 08:46:13;;;;;;;10.32;6.60;;;11.40;97.30;;;;;;5069017;28;20011;-75
2024/02/13 08:48:41;;;;;;;11.35;6.80;;;11.40;97.90;;;;;;5067403;28;20102;-73
2024/02/13 08:51:09;;;;;;;8.95;6.50;;;11.80;97.20;;;;;;5063851;28;20036;-78
2024/02/13 08:53:36;;;;;;;10.50;6.60;;;11.90;96.90;;;;;;5072475;28;20345;-79
2024/02/13 08:56:04;;;;;;;10.60;6.32;;;12.20;96.20;;;;;;5073242;28;20032;-78
2024/02/13 08:58:31;;;;;;;8.95;6.60;;;12.40;95.90;;;;;;5071972;28;20032;-79
2024/02/13 09:00:59;;;;;;;8.75;5.93;;;12.40;95.20;;;;;;5042779;28;20117;-77
2024/02/13 09:03:26;;;;;;;11.20;7.40;;;12.30;95.60;;;;;;5072870;28;20468;-78
2024/02/13 09:05:56;;;;;;;8.98;6.30;;;12.30;95.40;;;;;;5071889;28;20502;-78
2024/02/13 09:08:23;;;;;;;9.60;6.73;;;12.20;95.30;;;;;;5073373;28;20119;-77
2024/02/13 09:10:51;;;;;;;10.38;6.93;;;12.60;95.70;;;;;;5072652;28;20040;-83
2024/02/13 09:13:18;;;;;;;8.13;5.50;;;13.40;95.00;;;;;;5069142;28;20043;-79
2024/02/13 09:15:46;;;;;;;6.40;4.47;;;13.00;93.70;;;;;;5073252;28;20033;-76
2024/02/13 09:18:13;;;;;;;8.70;4.70;;;12.70;92.90;;;;;;5062369;28;20064;-75
2024/02/13 09:20:41;;;;;;;7.22;4.70;;;12.60;93.70;;;;;;5060642;28;20037;-74
2024/02/13 09:23:09;;;;;;;5.50;4.10;;;13.50;93.00;;;;;;5068873;28;20043;-81
2024/02/13 09:25:38;;;;;;;7.03;3.53;;;13.90;91.00;;;;;;5069853;28;21126;-77
2024/02/13 09:28:09;;;;;;;8.98;3.78;;;13.90;90.20;;;;;;5068601;28;20041;-76
2024/02/13 09:30:36;;;;;;;7.03;3.55;;;13.70;90.30;;;;;;5060314;28;20530;-79
2024/02/13 09:33:04;;;;;;;6.40;3.67;;;13.50;90.00;;;;;;5068352;28;20037;-81
2024/02/13 09:35:32;;;;;;;8.32;3.50;;;13.20;90.70;;;;;;5058654;28;20036;-81
2024/02/13 09:37:59;;;;;;;11.02;3.70;;;13.30;90.30;;;;;;5054102;28;20480;-76
2024/02/13 09:40:28;;;;;;;7.90;3.90;;;13.50;89.30;;;;;;5058103;28;20056;-79
2024/02/13 09:42:55;;;;;;;7.20;4.00;;;12.90;90.10;;;;;;5066133;28;20040;-79
2024/02/13 09:45:23;;;;;;;6.05;3.83;;;13.40;90.20;;;;;;5053131;28;20125;-81
2024/02/13 09:47:52;;;;;;;5.10;3.67;;;13.40;87.90;;;;;;5062837;28;20040;-83
2024/02/13 09:50:20;;;;;;;7.13;4.00;;;13.00;88.90;;;;;;5056452;28;20060;-80
2024/02/13 09:52:54;;;;;;;6.40;3.65;;;12.70;89.60;;;;;;5060739;28;20282;-79
2024/02/13 09:55:22;;;;;;;5.50;3.47;;;12.70;88.90;;;;;;5049995;28;20116;-81
2024/02/13 09:57:49;;;;;;;4.35;3.60;;;12.80;88.50;;;;;;5070325;28;20109;-81
2024/02/13 10:00:18;;;;;;;6.20;3.88;;;12.70;87.20;;;;;;5071808;28;20035;-73
2024/02/13 10:02:49;;;;;;;6.88;3.97;;;12.80;88.00;;;;;;5069914;28;20058;-81
2024/02/13 10:05:17;;;;;;;4.45;3.60;;;13.30;86.30;;;;;;5065556;28;20051;-82
2024/02/13 10:07:45;;;;;;;7.68;4.72;;;12.80;86.60;;;;;;5050419;28;20418;-78
2024/02/13 10:10:13;;;;;;;6.28;4.22;;;13.30;86.10;;;;;;5067810;28;20024;-79
2024/02/13 10:12:59;;;;;;;6.18;3.75;;;13.30;85.80;;;;;;5066941;28;20037;-80
2024/02/13 10:15:40;;;;;;;10.20;4.70;;;13.20;84.50;;;;;;5077947;28;20039;-76
2024/02/13 10:18:11;;;;;;;10.70;4.10;;;13.20;84.20;;;;;;5077348;28;20036;-77
2024/02/13 10:20:43;;;;;;;7.25;4.65;;;13.20;84.40;;;;;;5067189;28;20036;-83
2024/02/13 10:23:14;;;;;;;6.28;3.70;;;13.30;83.70;;;;;;5048983;28;20036;-83
2024/02/13 10:25:46;;;;;;;10.60;4.00;;;13.50;82.70;;;;;;5066959;28;20039;-76
2024/02/13 10:28:17;;;;;;;8.13;3.55;;;13.60;82.40;;;;;;5058513;28;20041;-74
2024/02/13 10:30:49;;;;;;;7.82;3.50;;;13.90;81.20;;;;;;5052808;28;20032;-79
2024/02/13 10:33:19;;;;;;;6.63;4.10;;;14.20;80.30;;;;;;5057907;28;20375;-77
2024/02/13 10:35:52;;;;;;;8.63;3.78;;;14.30;80.20;;;;;;5068812;28;20036;-76
2024/02/13 10:38:25;;;;;;;8.07;3.42;;;14.20;80.00;;;;;;5067527;28;20044;-80
2024/02/13 10:40:57;;;;;;;6.88;3.30;;;14.60;78.70;;;;;;5043524;28;20353;-80
2024/02/13 10:43:27;;;;;;;7.78;4.20;;;15.20;77.60;;;;;;5065004;28;20048;-80
2024/02/13 10:45:58;;;;;;;9.13;4.40;;;15.80;75.80;;;;;;5064818;28;20468;-79
2024/02/13 10:48:45;;;;;;;5.82;3.40;;;15.60;75.20;;;;;;5065031;28;20043;-81
2024/02/13 10:51:17;;;;;;;8.32;2.97;;;15.70;74.50;;;;;;5062075;28;20803;-81
2024/02/13 10:53:49;;;;;;;12.05;3.08;;;15.60;74.90;;;;;;5064763;28;20468;-81
2024/02/13 10:56:20;;;;;;;6.13;3.20;;;15.30;75.10;;;;;;5066668;28;20048;-79
2024/02/13 10:58:51;;;;;;;9.70;3.58;;;15.30;75.50;;;;;;5056125;28;20132;-86
2024/02/13 11:01:21;;;;;;;4.60;3.53;;;15.20;75.50;;;;;;5081859;28;20043;-81
2024/02/13 11:03:59;;;;;;;4.82;3.17;;;14.90;75.70;;;;;;5054085;28;20078;-79
2024/02/13 11:06:32;;;;;;;4.65;3.20;;;14.50;75.70;;;;;;5054604;28;20037;-72
2024/02/13 11:09:12;;;;;;;6.47;3.28;;;14.60;77.40;;;;;;5050920;28;20056;-78
2024/02/13 11:11:44;;;;;;;6.93;3.43;;;15.20;76.40;;;;;;5048506;28;20135;-77
2024/02/13 11:14:16;;;;;;;4.07;3.10;;;15.10;76.00;;;;;;5071091;28;20036;-80
2024/02/13 11:17:08;;;;;;;4.72;3.10;;;14.80;76.00;;;;;;5070556;28;20043;-78
2024/02/13 11:19:58;;;;;;;3.78;2.80;;;16.50;73.00;;;;;;5054619;28;20052;-70
2024/02/13 11:22:37;;;;;;;3.85;2.70;;;18.50;70.90;;;;;;5025049;28;20432;-78
2024/02/13 11:25:10;;;;;;;3.35;2.60;;;18.00;67.10;;;;;;5056851;28;20024;-74
2024/02/13 11:27:57;;;;;;;4.38;2.78;;;17.30;70.60;;;;;;5069945;28;20032;-74
2024/02/13 11:30:28;;;;;;;3.75;2.67;;;16.70;69.30;;;;;;5062560;28;20043;-79
2024/02/13 11:33:03;;;;;;;4.57;3.05;;;15.80;71.20;;;;;;5053256;28;20373;-79
2024/02/13 11:35:39;;;;;;;4.43;3.17;;;15.40;72.30;;;;;;5051422;28;20033;-85
2024/02/13 11:38:16;;;;;;;4.13;3.15;;;15.50;72.70;;;;;;5053650;28;20055;-86
2024/02/13 11:40:44;;;;;;;5.25;3.13;;;15.10;72.50;;;;;;5047100;28;20039;-80
2024/02/13 11:43:21;;;;;;;4.07;3.30;;;14.80;73.50;;;;;;5067322;28;20037;-81
2024/02/13 11:45:49;;;;;;;4.38;2.90;;;14.90;73.20;;;;;;5068034;28;20090;-81
2024/02/13 11:48:23;;;;;;;4.18;2.97;;;15.10;71.00;;;;;;5063982;28;20090;-74
2024/02/13 11:50:57;;;;;;;5.07;3.25;;;15.00;72.70;;;;;;5058716;28;20060;-73
2024/02/13 11:53:25;;;;;;;4.38;3.10;;;15.40;71.90;;;;;;5068715;28;20712;-81
2024/02/13 11:55:57;;;;;;;4.50;3.10;;;15.30;69.90;;;;;;5062984;28;20112;-88
2024/02/13 11:58:26;;;;;;;5.93;2.90;;;14.70;70.40;;;;;;5074525;28;20048;-79
2024/02/13 12:01:02;;;;;;;4.73;3.10;;;14.70;70.70;;;;;;5072394;28;20451;-83
2024/02/13 12:03:35;;;;;;;7.53;4.40;;;14.60;70.40;;;;;;5073964;28;20044;-84
2024/02/13 12:06:06;;;;;;;5.47;3.55;;;14.50;71.40;;;;;;5073481;28;20547;-81
2024/02/13 12:08:36;;;;;;;4.97;3.30;;;14.20;71.60;;;;;;5064356;28;20069;-87
2024/02/13 12:11:04;;;;;;;7.15;3.30;;;14.20;72.00;;;;;;5054583;28;20491;-81
2024/02/13 12:13:32;;;;;;;5.13;3.38;;;14.20;72.00;;;;;;5055183;28;20365;-84
2024/02/13 12:16:00;;;;;;;4.30;3.08;;;14.20;72.50;;;;;;5058971;28;20083;-87
2024/02/13 12:18:30;;;;;;;4.80;3.22;;;14.10;72.40;;;;;;5056361;28;20040;-84
2024/02/13 12:20:59;;;;;;;4.50;3.30;;;14.00;72.20;;;;;;5052990;28;20381;-85
2024/02/13 12:23:26;;;;;;;4.63;3.15;;;14.10;72.00;;;;;;5074185;28;20376;-82
2024/02/13 12:26:00;;;;;;;4.27;3.10;;;13.60;72.10;;;;;;5057555;28;20029;-80
2024/02/13 12:28:28;;;;;;;6.97;3.30;;;13.70;72.70;;;;;;5050799;28;20059;-78
2024/02/13 12:30:56;;;;;;;4.53;3.20;;;13.80;72.90;;;;;;5051658;28;20179;-74
2024/02/13 12:33:25;;;;;;;4.85;3.50;;;13.70;73.20;;;;;;5069371;28;20443;-79
2024/02/13 12:36:07;;;;;;;7.88;3.60;;;13.80;72.80;;;;;;5034796;28;20049;-81
2024/02/13 12:38:36;;;;;;;4.38;3.40;;;13.80;73.00;;;;;;5051103;28;20037;-79
2024/02/13 12:41:04;;;;;;;5.20;3.47;;;13.70;72.60;;;;;;5051167;28;20113;-73
2024/02/13 12:43:32;;;;;;;6.90;4.10;;;13.40;73.50;;;;;;5051047;28;20036;-81
2024/02/13 12:46:02;;;;;;;5.53;3.90;;;13.50;73.40;;;;;;5060473;28;20116;-76
2024/02/13 12:48:31;;;;;;;5.07;3.40;;;13.70;72.80;;;;;;5065085;28;20040;-80
2024/02/13 12:51:08;;;;;;;4.13;3.33;;;13.90;72.20;;;;;;5071106;28;20041;-78
2024/02/13 12:53:39;;;;;;;5.10;3.53;;;13.70;72.10;;;;;;5069911;28;20037;-82
2024/02/13 12:56:08;;;;;;;4.32;3.38;;;13.80;72.00;;;;;;5070548;28;20106;-82